sensor_id;sensor_type;location;lat;lon;timestamp;pressure;altitude;pressure_sealevel;temperature;humidity
7052;BME280;3567;52.444;13.556;2023-04-15T00:00:10;100169.47;;;7.88;100.00
7052;BME280;3567;52.444;13.556;2023-04-15T00:02:36;100173.78;;;7.90;100.00
7052;BME280;3567;52.444;13.556;2023-04-15T00:05:02;100168.44;;;7.90;100.00
7052;BME280;3567;52.444;13.556;2023-04-15T00:07:27;100165.78;;;7.90;100.00
7052;BME280;3567;52.444;13.556;2023-04-15T00:09:54;100164.16;;;7.88;100.00
7052;BME280;3567;52.444;13.556;2023-04-15T00:12:22;100162.50;;;7.87;100.00
7052;BME280;3567;52.444;13.556;2023-04-15T00:14:47;100158.81;;;7.88;100.00
7052;BME280;3567;52.444;13.556;2023-04-15T00:17:13;100161.50;;;7.88;100.00
7052;BME280;3567;52.444;13.556;2023-04-15T00:19:38;100157.97;;;7.88;100.00
7052;BME280;3567;52.444;13.556;2023-04-15T00:22:04;100164.16;;;7.88;100.00
7052;BME280;3567;52.444;13.556;2023-04-15T00:24:31;100158.22;;;7.86;100.00
7052;BME280;3567;52.444;13.556;2023-04-15T00:26:57;100159.84;;;7.87;100.00
7052;BME280;3567;52.444;13.556;2023-04-15T00:29:23;100157.16;;;7.87;100.00
7052;BME280;3567;52.444;13.556;2023-04-15T00:31:48;100157.41;;;7.86;100.00
7052;BME280;3567;52.444;13.556;2023-04-15T00:34:14;100161.69;;;7.87;100.00
7052;BME280;3567;52.444;13.556;2023-04-15T00:36:39;100162.50;;;7.87;100.00
7052;BME280;3567;52.444;13.556;2023-04-15T00:39:05;100159.63;;;7.89;100.00
7052;BME280;3567;52.444;13.556;2023-04-15T00:41:30;100161.50;;;7.88;100.00
7052;BME280;3567;52.444;13.556;2023-04-15T00:43:58;100164.97;;;7.89;100.00
7052;BME280;3567;52.444;13.556;2023-04-15T00:46:26;100168.44;;;7.90;100.00
7052;BME280;3567;52.444;13.556;2023-04-15T00:48:53;100155.09;;;7.90;100.00
7052;BME280;3567;52.444;13.556;2023-04-15T00:51:19;100151.41;;;7.91;100.00
7052;BME280;3567;52.444;13.556;2023-04-15T00:53:44;100152.44;;;7.90;100.00
7052;BME280;3567;52.444;13.556;2023-04-15T00:56:10;100149.78;;;7.90;100.00
7052;BME280;3567;52.444;13.556;2023-04-15T00:58:35;100146.28;;;7.89;100.00
7052;BME280;3567;52.444;13.556;2023-04-15T01:01:01;100144.44;;;7.90;100.00
7052;BME280;3567;52.444;13.556;2023-04-15T01:03:28;100146.06;;;7.91;100.00
7052;BME280;3567;52.444;13.556;2023-04-15T01:05:54;100145.25;;;7.90;100.00
7052;BME280;3567;52.444;13.556;2023-04-15T01:08:26;100142.34;;;7.92;100.00
7052;BME280;3567;52.444;13.556;2023-04-15T01:10:54;100145.25;;;7.90;100.00
7052;BME280;3567;52.444;13.556;2023-04-15T01:13:24;100141.78;;;7.90;100.00
7052;BME280;3567;52.444;13.556;2023-04-15T01:15:51;100141.78;;;7.90;100.00
7052;BME280;3567;52.444;13.556;2023-04-15T01:18:17;100147.31;;;7.88;100.00
7052;BME280;3567;52.444;13.556;2023-04-15T01:20:43;100150.81;;;7.88;100.00
7052;BME280;3567;52.444;13.556;2023-04-15T01:23:09;100138.50;;;7.87;100.00
7052;BME280;3567;52.444;13.556;2023-04-15T01:25:34;100136.06;;;7.86;100.00
7052;BME280;3567;52.444;13.556;2023-04-15T01:28:00;100139.31;;;7.88;100.00
7052;BME280;3567;52.444;13.556;2023-04-15T01:30:25;100139.53;;;7.86;100.00
7052;BME280;3567;52.444;13.556;2023-04-15T01:32:52;100137.69;;;7.87;100.00
7052;BME280;3567;52.444;13.556;2023-04-15T01:35:17;100138.50;;;7.87;100.00
7052;BME280;3567;52.444;13.556;2023-04-15T01:37:43;100133.16;;;7.87;100.00
7052;BME280;3567;52.444;13.556;2023-04-15T01:40:09;100135.63;;;7.89;100.00
7052;BME280;3567;52.444;13.556;2023-04-15T01:42:35;100131.53;;;7.86;100.00
7052;BME280;3567;52.444;13.556;2023-04-15T01:45:01;100133.16;;;7.87;100.00
7052;BME280;3567;52.444;13.556;2023-04-15T01:47:27;100130.50;;;7.87;100.00
7052;BME280;3567;52.444;13.556;2023-04-15T01:49:52;100137.50;;;7.88;100.00
7052;BME280;3567;52.444;13.556;2023-04-15T01:52:18;100130.72;;;7.86;100.00
7052;BME280;3567;52.444;13.556;2023-04-15T01:54:43;100132.97;;;7.89;100.00
7052;BME280;3567;52.444;13.556;2023-04-15T01:57:09;100128.88;;;7.86;100.00
7052;BME280;3567;52.444;13.556;2023-04-15T01:59:34;100128.66;;;7.88;100.00
7052;BME280;3567;52.444;13.556;2023-04-15T02:02:00;100129.13;;;7.85;100.00
7052;BME280;3567;52.444;13.556;2023-04-15T02:04:26;100124.81;;;7.84;100.00
7052;BME280;3567;52.444;13.556;2023-04-15T02:06:52;100129.34;;;7.83;100.00
7052;BME280;3567;52.444;13.556;2023-04-15T02:09:18;100122.34;;;7.82;100.00
7052;BME280;3567;52.444;13.556;2023-04-15T02:11:43;100126.88;;;7.82;100.00
7052;BME280;3567;52.444;13.556;2023-04-15T02:14:09;100123.41;;;7.81;100.00
7052;BME280;3567;52.444;13.556;2023-04-15T02:16:34;100124.00;;;7.83;100.00
7052;BME280;3567;52.444;13.556;2023-04-15T02:19:00;100121.56;;;7.82;100.00
7052;BME280;3567;52.444;13.556;2023-04-15T02:21:26;100120.53;;;7.83;100.00
7052;BME280;3567;52.444;13.556;2023-04-15T02:23:51;100117.88;;;7.83;100.00
7052;BME280;3567;52.444;13.556;2023-04-15T02:26:18;100124.00;;;7.83;100.00
7052;BME280;3567;52.444;13.556;2023-04-15T02:28:43;100125.88;;;7.83;100.00
7052;BME280;3567;52.444;13.556;2023-04-15T02:31:09;100125.03;;;7.82;100.00
7052;BME280;3567;52.444;13.556;2023-04-15T02:33:34;100122.16;;;7.84;100.00
7052;BME280;3567;52.444;13.556;2023-04-15T02:36:01;100124.81;;;7.84;100.00
7052;BME280;3567;52.444;13.556;2023-04-15T02:38:26;100121.13;;;7.85;100.00
7052;BME280;3567;52.444;13.556;2023-04-15T02:40:51;100124.59;;;7.85;100.00
7052;BME280;3567;52.444;13.556;2023-04-15T02:43:17;100127.84;;;7.87;100.00
7052;BME280;3567;52.444;13.556;2023-04-15T02:45:44;100124.16;;;7.88;100.00
7052;BME280;3567;52.444;13.556;2023-04-15T02:48:09;100128.44;;;7.90;100.00
7052;BME280;3567;52.444;13.556;2023-04-15T02:50:35;100129.81;;;7.92;100.00
7052;BME280;3567;52.444;13.556;2023-04-15T02:53:02;100127.97;;;7.93;100.00
7052;BME280;3567;52.444;13.556;2023-04-15T02:55:29;100129.63;;;7.94;100.00
7052;BME280;3567;52.444;13.556;2023-04-15T02:57:54;100126.50;;;7.97;100.00
7052;BME280;3567;52.444;13.556;2023-04-15T03:00:20;100127.53;;;7.96;100.00
7052;BME280;3567;52.444;13.556;2023-04-15T03:02:45;100136.09;;;7.98;100.00
7052;BME280;3567;52.444;13.556;2023-04-15T03:05:12;100134.88;;;8.00;100.00
7052;BME280;3567;52.444;13.556;2023-04-15T03:07:38;100129.53;;;8.00;100.00
7052;BME280;3567;52.444;13.556;2023-04-15T03:10:06;100134.63;;;8.02;100.00
7052;BME280;3567;52.444;13.556;2023-04-15T03:12:31;100137.88;;;8.04;100.00
7052;BME280;3567;52.444;13.556;2023-04-15T03:14:57;100133.94;;;8.06;100.00
7052;BME280;3567;52.444;13.556;2023-04-15T03:17:22;100130.47;;;8.06;100.00
7052;BME280;3567;52.444;13.556;2023-04-15T03:19:47;100135.56;;;8.07;100.00
7052;BME280;3567;52.444;13.556;2023-04-15T03:22:13;100135.94;;;8.11;100.00
7052;BME280;3567;52.444;13.556;2023-04-15T03:24:38;100136.75;;;8.11;100.00
7052;BME280;3567;52.444;13.556;2023-04-15T03:27:03;100141.84;;;8.13;100.00
7052;BME280;3567;52.444;13.556;2023-04-15T03:29:32;100141.84;;;8.13;100.00
7052;BME280;3567;52.444;13.556;2023-04-15T03:31:57;100132.00;;;8.13;100.00
7052;BME280;3567;52.444;13.556;2023-04-15T03:34:22;100136.53;;;8.13;100.00
7052;BME280;3567;52.444;13.556;2023-04-15T03:36:48;100136.28;;;8.14;100.00
7052;BME280;3567;52.444;13.556;2023-04-15T03:39:13;100130.94;;;8.14;100.00
7052;BME280;3567;52.444;13.556;2023-04-15T03:41:39;100128.06;;;8.16;100.00
7052;BME280;3567;52.444;13.556;2023-04-15T03:44:05;100131.56;;;8.17;100.00
7052;BME280;3567;52.444;13.556;2023-04-15T03:46:30;100129.69;;;8.17;100.00
7052;BME280;3567;52.444;13.556;2023-04-15T03:48:56;100135.03;;;8.17;100.00
7052;BME280;3567;52.444;13.556;2023-04-15T03:51:21;100143.63;;;8.19;100.00
7052;BME280;3567;52.444;13.556;2023-04-15T03:53:46;100146.50;;;8.18;100.00
7052;BME280;3567;52.444;13.556;2023-04-15T03:56:12;100142.00;;;8.18;100.00
7052;BME280;3567;52.444;13.556;2023-04-15T03:58:37;100148.94;;;8.19;100.00
7052;BME280;3567;52.444;13.556;2023-04-15T04:01:02;100145.47;;;8.19;100.00
7052;BME280;3567;52.444;13.556;2023-04-15T04:03:28;100153.84;;;8.22;100.00
7052;BME280;3567;52.444;13.556;2023-04-15T04:05:53;100138.28;;;8.19;100.00
7052;BME280;3567;52.444;13.556;2023-04-15T04:08:19;100143.16;;;8.22;100.00
7052;BME280;3567;52.444;13.556;2023-04-15T04:10:45;100148.50;;;8.22;100.00
7052;BME280;3567;52.444;13.556;2023-04-15T04:13:11;100150.38;;;8.22;100.00
7052;BME280;3567;52.444;13.556;2023-04-15T04:15:36;100151.75;;;8.24;100.00
7052;BME280;3567;52.444;13.556;2023-04-15T04:18:02;100155.47;;;8.23;100.00
7052;BME280;3567;52.444;13.556;2023-04-15T04:20:27;100157.09;;;8.24;100.00
7052;BME280;3567;52.444;13.556;2023-04-15T04:22:53;100152.78;;;8.23;100.00
7052;BME280;3567;52.444;13.556;2023-04-15T04:25:19;100155.03;;;8.26;100.00
7052;BME280;3567;52.444;13.556;2023-04-15T04:27:44;100154.22;;;8.26;100.00
7052;BME280;3567;52.444;13.556;2023-04-15T04:30:10;100153.97;;;8.27;100.00
7052;BME280;3567;52.444;13.556;2023-04-15T04:32:35;100143.88;;;8.29;100.00
7052;BME280;3567;52.444;13.556;2023-04-15T04:35:01;100149.22;;;8.29;100.00
7052;BME280;3567;52.444;13.556;2023-04-15T04:37:27;100150.84;;;8.30;100.00
7052;BME280;3567;52.444;13.556;2023-04-15T04:39:52;100151.88;;;8.29;100.00
7052;BME280;3567;52.444;13.556;2023-04-15T04:42:17;100155.97;;;8.32;100.00
7052;BME280;3567;52.444;13.556;2023-04-15T04:44:43;100156.78;;;8.32;100.00
7052;BME280;3567;52.444;13.556;2023-04-15T04:47:09;100154.69;;;8.34;100.00
7052;BME280;3567;52.444;13.556;2023-04-15T04:49:34;100154.47;;;8.36;100.00
7052;BME280;3567;52.444;13.556;2023-04-15T04:51:59;100147.88;;;8.38;100.00
7052;BME280;3567;52.444;13.556;2023-04-15T04:54:25;100159.13;;;8.40;100.00
7052;BME280;3567;52.444;13.556;2023-04-15T04:56:51;100163.44;;;8.42;100.00
7052;BME280;3567;52.444;13.556;2023-04-15T04:59:17;100160.53;;;8.43;100.00
7052;BME280;3567;52.444;13.556;2023-04-15T05:01:42;100169.94;;;8.46;100.00
7052;BME280;3567;52.444;13.556;2023-04-15T05:04:08;100168.69;;;8.48;100.00
7052;BME280;3567;52.444;13.556;2023-04-15T05:06:33;100175.41;;;8.51;100.00
7052;BME280;3567;52.444;13.556;2023-04-15T05:09:00;100180.31;;;8.54;100.00
7052;BME280;3567;52.444;13.556;2023-04-15T05:11:27;100184.59;;;8.55;100.00
7052;BME280;3567;52.444;13.556;2023-04-15T05:13:52;100180.88;;;8.56;100.00
7052;BME280;3567;52.444;13.556;2023-04-15T05:16:18;100186.81;;;8.58;100.00
7052;BME280;3567;52.444;13.556;2023-04-15T05:18:44;100187.63;;;8.58;100.00
7052;BME280;3567;52.444;13.556;2023-04-15T05:21:10;100192.28;;;8.63;100.00
7052;BME280;3567;52.444;13.556;2023-04-15T05:23:35;100191.25;;;8.64;100.00
7052;BME280;3567;52.444;13.556;2023-04-15T05:26:01;100189.72;;;8.68;100.00
7052;BME280;3567;52.444;13.556;2023-04-15T05:28:27;100191.94;;;8.71;100.00
7052;BME280;3567;52.444;13.556;2023-04-15T05:30:52;100191.69;;;8.73;100.00
7052;BME280;3567;52.444;13.556;2023-04-15T05:33:17;100201.94;;;8.76;100.00
7052;BME280;3567;52.444;13.556;2023-04-15T05:35:43;100193.69;;;8.77;100.00
7052;BME280;3567;52.444;13.556;2023-04-15T05:38:08;100191.38;;;8.81;100.00
7052;BME280;3567;52.444;13.556;2023-04-15T05:40:33;100193.56;;;8.84;100.00
7052;BME280;3567;52.444;13.556;2023-04-15T05:42:59;100193.13;;;8.87;100.00
7052;BME280;3567;52.444;13.556;2023-04-15T05:45:24;100185.69;;;8.89;100.00
7052;BME280;3567;52.444;13.556;2023-04-15T05:47:50;100186.53;;;8.89;100.00
7052;BME280;3567;52.444;13.556;2023-04-15T05:50:18;100183.13;;;8.94;100.00
7052;BME280;3567;52.444;13.556;2023-04-15T05:52:44;100187.22;;;8.97;100.00
7052;BME280;3567;52.444;13.556;2023-04-15T05:55:10;100185.13;;;8.99;100.00
7052;BME280;3567;52.444;13.556;2023-04-15T05:57:36;100172.81;;;8.98;100.00
7052;BME280;3567;52.444;13.556;2023-04-15T06:00:05;100180.38;;;9.01;100.00
7052;BME280;3567;52.444;13.556;2023-04-15T06:02:30;100187.34;;;9.02;100.00
7052;BME280;3567;52.444;13.556;2023-04-15T06:04:56;100191.19;;;9.06;100.00
7052;BME280;3567;52.444;13.556;2023-04-15T06:07:22;100191.75;;;9.08;100.00
7052;BME280;3567;52.444;13.556;2023-04-15T06:09:48;100194.19;;;9.09;100.00
7052;BME280;3567;52.444;13.556;2023-04-15T06:12:14;100185.97;;;9.11;100.00
7052;BME280;3567;52.444;13.556;2023-04-15T06:14:39;100182.81;;;9.14;100.00
7052;BME280;3567;52.444;13.556;2023-04-15T06:17:05;100185.25;;;9.15;100.00
7052;BME280;3567;52.444;13.556;2023-04-15T06:19:31;100185.84;;;9.17;100.00
7052;BME280;3567;52.444;13.556;2023-04-15T06:21:57;100193.84;;;9.17;100.00
7052;BME280;3567;52.444;13.556;2023-04-15T06:24:23;100187.81;;;9.22;100.00
7052;BME280;3567;52.444;13.556;2023-04-15T06:26:48;100195.94;;;9.27;100.00
7052;BME280;3567;52.444;13.556;2023-04-15T06:29:13;100194.91;;;9.28;100.00
7052;BME280;3567;52.444;13.556;2023-04-15T06:31:39;100201.75;;;9.36;100.00
7052;BME280;3567;52.444;13.556;2023-04-15T06:34:05;100206.38;;;9.40;100.00
7052;BME280;3567;52.444;13.556;2023-04-15T06:36:30;100205.69;;;9.45;100.00
7052;BME280;3567;52.444;13.556;2023-04-15T06:38:56;100212.78;;;9.51;100.00
7052;BME280;3567;52.444;13.556;2023-04-15T06:41:22;100211.50;;;9.54;100.00
7052;BME280;3567;52.444;13.556;2023-04-15T06:43:47;100216.72;;;9.60;100.00
7052;BME280;3567;52.444;13.556;2023-04-15T06:46:12;100219.25;;;9.67;100.00
7052;BME280;3567;52.444;13.556;2023-04-15T06:48:38;100217.50;;;9.73;100.00
7052;BME280;3567;52.444;13.556;2023-04-15T06:51:04;100225.41;;;9.79;100.00
7052;BME280;3567;52.444;13.556;2023-04-15T06:53:29;100223.44;;;9.75;100.00
7052;BME280;3567;52.444;13.556;2023-04-15T06:55:54;100225.63;;;9.78;100.00
7052;BME280;3567;52.444;13.556;2023-04-15T06:58:20;100238.66;;;9.86;100.00
7052;BME280;3567;52.444;13.556;2023-04-15T07:00:46;100226.00;;;9.81;100.00
7052;BME280;3567;52.444;13.556;2023-04-15T07:03:12;100235.41;;;9.84;100.00
7052;BME280;3567;52.444;13.556;2023-04-15T07:05:38;100237.25;;;9.83;100.00
7052;BME280;3567;52.444;13.556;2023-04-15T07:08:04;100245.63;;;9.87;100.00
7052;BME280;3567;52.444;13.556;2023-04-15T07:10:29;100242.16;;;9.86;100.00
7052;BME280;3567;52.444;13.556;2023-04-15T07:12:55;100249.69;;;9.89;100.00
7052;BME280;3567;52.444;13.556;2023-04-15T07:15:21;100248.06;;;9.88;100.00
7052;BME280;3567;52.444;13.556;2023-04-15T07:17:46;100257.59;;;9.84;100.00
7052;BME280;3567;52.444;13.556;2023-04-15T07:20:12;100251.69;;;9.82;100.00
7052;BME280;3567;52.444;13.556;2023-04-15T07:22:38;100259.34;;;9.79;100.00
7052;BME280;3567;52.444;13.556;2023-04-15T07:25:04;100256.69;;;9.79;100.00
7052;BME280;3567;52.444;13.556;2023-04-15T07:27:29;100259.34;;;9.79;100.00
7052;BME280;3567;52.444;13.556;2023-04-15T07:29:55;100263.78;;;9.73;100.00
7052;BME280;3567;52.444;13.556;2023-04-15T07:32:20;100265.78;;;9.66;100.00
7052;BME280;3567;52.444;13.556;2023-04-15T07:34:46;100274.75;;;9.60;100.00
7052;BME280;3567;52.444;13.556;2023-04-15T07:37:11;100266.13;;;9.58;100.00
7052;BME280;3567;52.444;13.556;2023-04-15T07:39:36;100273.00;;;9.54;100.00
7052;BME280;3567;52.444;13.556;2023-04-15T07:42:02;100271.03;;;9.49;100.00
7052;BME280;3567;52.444;13.556;2023-04-15T07:44:28;100264.06;;;9.48;100.00
7052;BME280;3567;52.444;13.556;2023-04-15T07:46:55;100271.22;;;9.48;100.00
7052;BME280;3567;52.444;13.556;2023-04-15T07:49:20;100267.75;;;9.47;100.00
7052;BME280;3567;52.444;13.556;2023-04-15T07:51:46;100267.41;;;9.43;100.00
7052;BME280;3567;52.444;13.556;2023-04-15T07:54:14;100263.09;;;9.42;100.00
7052;BME280;3567;52.444;13.556;2023-04-15T07:56:39;100269.72;;;9.40;100.00
7052;BME280;3567;52.444;13.556;2023-04-15T07:59:05;100277.50;;;9.41;100.00
7052;BME280;3567;52.444;13.556;2023-04-15T08:01:31;100276.94;;;9.39;100.00
7052;BME280;3567;52.444;13.556;2023-04-15T08:03:57;100276.94;;;9.39;100.00
7052;BME280;3567;52.444;13.556;2023-04-15T08:06:23;100273.22;;;9.40;100.00
7052;BME280;3567;52.444;13.556;2023-04-15T08:08:48;100273.22;;;9.40;100.00
7052;BME280;3567;52.444;13.556;2023-04-15T08:11:14;100280.53;;;9.45;100.00
7052;BME280;3567;52.444;13.556;2023-04-15T08:13:39;100286.25;;;9.49;100.00
7052;BME280;3567;52.444;13.556;2023-04-15T08:16:22;100281.72;;;9.49;100.00
7052;BME280;3567;52.444;13.556;2023-04-15T08:18:50;100286.00;;;9.50;100.00
7052;BME280;3567;52.444;13.556;2023-04-15T08:21:16;100283.91;;;9.52;100.00
7052;BME280;3567;52.444;13.556;2023-04-15T08:23:43;100281.03;;;9.54;100.00
7052;BME280;3567;52.444;13.556;2023-04-15T08:26:09;100286.94;;;9.56;100.00
7052;BME280;3567;52.444;13.556;2023-04-15T08:28:35;100287.38;;;9.53;100.00
7052;BME280;3567;52.444;13.556;2023-04-15T08:31:01;100285.53;;;9.53;100.00
7052;BME280;3567;52.444;13.556;2023-04-15T08:33:26;100293.56;;;9.53;100.00
7052;BME280;3567;52.444;13.556;2023-04-15T08:35:52;100298.31;;;9.51;100.00
7052;BME280;3567;52.444;13.556;2023-04-15T08:38:18;100295.09;;;9.49;100.00
7052;BME280;3567;52.444;13.556;2023-04-15T08:40:44;100300.19;;;9.51;100.00
7052;BME280;3567;52.444;13.556;2023-04-15T08:43:18;100302.41;;;9.54;100.00
7052;BME280;3567;52.444;13.556;2023-04-15T08:45:45;100304.59;;;9.57;100.00
7052;BME280;3567;52.444;13.556;2023-04-15T08:48:14;100305.22;;;9.59;100.00
7052;BME280;3567;52.444;13.556;2023-04-15T08:50:43;100307.41;;;9.62;100.00
7052;BME280;3567;52.444;13.556;2023-04-15T08:53:10;100304.84;;;9.67;100.00
7052;BME280;3567;52.444;13.556;2023-04-15T08:55:42;100304.38;;;9.70;100.00
7052;BME280;3567;52.444;13.556;2023-04-15T08:58:09;100308.00;;;9.76;100.00
7052;BME280;3567;52.444;13.556;2023-04-15T09:00:35;100303.44;;;9.76;100.00
7052;BME280;3567;52.444;13.556;2023-04-15T09:03:01;100308.00;;;9.76;100.00
7052;BME280;3567;52.444;13.556;2023-04-15T09:05:26;100307.28;;;9.80;100.00
7052;BME280;3567;52.444;13.556;2023-04-15T09:07:51;100308.44;;;9.84;100.00
7052;BME280;3567;52.444;13.556;2023-04-15T09:10:17;100309.03;;;9.86;100.00
7052;BME280;3567;52.444;13.556;2023-04-15T09:12:42;100319.72;;;9.86;100.00
7052;BME280;3567;52.444;13.556;2023-04-15T09:15:10;100302.03;;;9.85;100.00
7052;BME280;3567;52.444;13.556;2023-04-15T09:17:41;100302.38;;;9.89;100.00
7052;BME280;3567;52.444;13.556;2023-04-15T09:22:33;100314.00;;;9.94;100.00
7052;BME280;3567;52.444;13.556;2023-04-15T09:24:58;100314.59;;;9.96;100.00
7052;BME280;3567;52.444;13.556;2023-04-15T09:27:24;100318.41;;;10.01;100.00
7052;BME280;3567;52.444;13.556;2023-04-15T09:29:50;100328.19;;;9.95;100.00
7052;BME280;3567;52.444;13.556;2023-04-15T09:32:17;100330.66;;;9.96;100.00
7052;BME280;3567;52.444;13.556;2023-04-15T09:34:43;100331.94;;;9.94;100.00
7052;BME280;3567;52.444;13.556;2023-04-15T09:37:09;100330.53;;;9.91;100.00
7052;BME280;3567;52.444;13.556;2023-04-15T09:39:48;100331.56;;;9.90;100.00
7052;BME280;3567;52.444;13.556;2023-04-15T09:42:14;100334.47;;;9.89;100.00
7052;BME280;3567;52.444;13.556;2023-04-15T09:44:41;100345.44;;;9.87;100.00
7052;BME280;3567;52.444;13.556;2023-04-15T09:47:06;100344.81;;;9.85;100.00
7052;BME280;3567;52.444;13.556;2023-04-15T09:49:31;100342.75;;;9.87;100.00
7052;BME280;3567;52.444;13.556;2023-04-15T09:51:59;100337.84;;;9.84;100.00
7052;BME280;3567;52.444;13.556;2023-04-15T09:54:32;100348.22;;;9.81;100.00
7052;BME280;3567;52.444;13.556;2023-04-15T09:57:04;100348.44;;;9.79;100.00
7052;BME280;3567;52.444;13.556;2023-04-15T09:59:30;100348.69;;;9.78;100.00
7052;BME280;3567;52.444;13.556;2023-04-15T10:01:56;100358.13;;;9.80;100.00
7052;BME280;3567;52.444;13.556;2023-04-15T10:04:22;100354.84;;;9.78;100.00
7052;BME280;3567;52.444;13.556;2023-04-15T10:06:49;100354.84;;;9.78;100.00
7052;BME280;3567;52.444;13.556;2023-04-15T10:09:15;100365.09;;;9.81;100.00
7052;BME280;3567;52.444;13.556;2023-04-15T10:11:42;100359.75;;;9.81;100.00
7052;BME280;3567;52.444;13.556;2023-04-15T10:14:09;100363.00;;;9.83;100.00
7052;BME280;3567;52.444;13.556;2023-04-15T10:16:39;100362.16;;;9.83;100.00
7052;BME280;3567;52.444;13.556;2023-04-15T10:19:07;100361.94;;;9.84;100.00
7052;BME280;3567;52.444;13.556;2023-04-15T10:21:34;100373.69;;;9.83;100.00
7052;BME280;3567;52.444;13.556;2023-04-15T10:24:00;100371.81;;;9.84;100.00
7052;BME280;3567;52.444;13.556;2023-04-15T10:26:27;100372.44;;;9.86;100.00
7052;BME280;3567;52.444;13.556;2023-04-15T10:28:53;100377.28;;;9.89;100.00
7052;BME280;3567;52.444;13.556;2023-04-15T10:31:18;100370.69;;;9.91;100.00
7052;BME280;3567;52.444;13.556;2023-04-15T10:33:45;100366.94;;;9.92;100.00
7052;BME280;3567;52.444;13.556;2023-04-15T10:36:11;100364.28;;;9.92;100.00
7052;BME280;3567;52.444;13.556;2023-04-15T10:38:40;100369.13;;;9.95;100.00
7052;BME280;3567;52.444;13.556;2023-04-15T10:41:22;100370.56;;;9.98;100.00
7052;BME280;3567;52.444;13.556;2023-04-15T10:46:18;100373.34;;;10.03;100.00
7052;BME280;3567;52.444;13.556;2023-04-15T10:48:52;100372.84;;;10.06;100.00
7052;BME280;3567;52.444;13.556;2023-04-15T10:51:30;100381.72;;;10.07;100.00
7052;BME280;3567;52.444;13.556;2023-04-15T10:53:58;100382.53;;;10.07;100.00
7052;BME280;3567;52.444;13.556;2023-04-15T10:56:24;100379.06;;;10.07;100.00
7052;BME280;3567;52.444;13.556;2023-04-15T10:58:50;100379.25;;;10.05;100.00
7052;BME280;3567;52.444;13.556;2023-04-15T11:01:16;100384.28;;;10.02;100.00
7052;BME280;3567;52.444;13.556;2023-04-15T11:03:43;100386.97;;;10.02;100.00
7052;BME280;3567;52.444;13.556;2023-04-15T11:06:08;100397.66;;;10.02;100.00
7052;BME280;3567;52.444;13.556;2023-04-15T11:08:57;100395.56;;;10.04;100.00
7052;BME280;3567;52.444;13.556;2023-04-15T11:14:26;100394.75;;;10.03;100.00
7052;BME280;3567;52.444;13.556;2023-04-15T11:16:51;100406.84;;;10.06;100.00
7052;BME280;3567;52.444;13.556;2023-04-15T11:19:17;100401.38;;;10.01;100.00
7052;BME280;3567;52.444;13.556;2023-04-15T11:21:42;100410.81;;;10.03;100.00
7052;BME280;3567;52.444;13.556;2023-04-15T11:24:08;100412.19;;;10.06;100.00
7052;BME280;3567;52.444;13.556;2023-04-15T11:26:33;100415.34;;;10.03;100.00
7052;BME280;3567;52.444;13.556;2023-04-15T11:28:59;100410.81;;;10.03;100.00
7052;BME280;3567;52.444;13.556;2023-04-15T11:31:26;100416.53;;;10.07;100.00
7052;BME280;3567;52.444;13.556;2023-04-15T11:33:57;100420.81;;;10.08;100.00
7052;BME280;3567;52.444;13.556;2023-04-15T11:36:29;100425.69;;;10.11;100.00
7052;BME280;3567;52.444;13.556;2023-04-15T11:38:57;100423.59;;;10.13;100.00
7052;BME280;3567;52.444;13.556;2023-04-15T11:41:23;100420.94;;;10.13;100.00
7052;BME280;3567;52.444;13.556;2023-04-15T11:43:49;100425.81;;;10.16;100.00
7052;BME280;3567;52.444;13.556;2023-04-15T11:46:15;100429.88;;;10.18;100.00
7052;BME280;3567;52.444;13.556;2023-04-15T11:48:42;100433.63;;;10.17;100.00
7052;BME280;3567;52.444;13.556;2023-04-15T11:51:09;100435.00;;;10.20;100.00
7052;BME280;3567;52.444;13.556;2023-04-15T11:56:01;100444.22;;;10.24;100.00
7052;BME280;3567;52.444;13.556;2023-04-15T11:58:28;100447.47;;;10.26;100.00
7052;BME280;3567;52.444;13.556;2023-04-15T12:00:58;100449.91;;;10.28;100.00
7052;BME280;3567;52.444;13.556;2023-04-15T12:03:41;100447.84;;;10.30;100.00
7052;BME280;3567;52.444;13.556;2023-04-15T12:06:20;100445.41;;;10.28;100.00
7052;BME280;3567;52.444;13.556;2023-04-15T12:11:14;100447.72;;;10.36;100.00
7052;BME280;3567;52.444;13.556;2023-04-15T12:13:46;100447.72;;;10.36;100.00
7052;BME280;3567;52.444;13.556;2023-04-15T12:16:15;100448.28;;;10.38;100.00
7052;BME280;3567;52.444;13.556;2023-04-15T12:18:40;100449.13;;;10.39;100.00
7052;BME280;3567;52.444;13.556;2023-04-15T12:21:10;100451.06;;;10.43;100.00
7052;BME280;3567;52.444;13.556;2023-04-15T12:23:56;100449.91;;;10.51;100.00
7052;BME280;3567;52.444;13.556;2023-04-15T12:26:44;100458.06;;;10.56;100.00
7052;BME280;3567;52.444;13.556;2023-04-15T12:29:11;100463.19;;;10.58;100.00
7052;BME280;3567;52.444;13.556;2023-04-15T12:31:46;100460.03;;;10.61;100.00
7052;BME280;3567;52.444;13.556;2023-04-15T12:34:13;100463.75;;;10.60;100.00
7052;BME280;3567;52.444;13.556;2023-04-15T12:36:38;100463.63;;;10.66;100.00
7052;BME280;3567;52.444;13.556;2023-04-15T12:39:04;100465.94;;;10.74;100.00
7052;BME280;3567;52.444;13.556;2023-04-15T12:41:30;100476.53;;;10.81;100.00
7052;BME280;3567;52.444;13.556;2023-04-15T12:43:56;100475.81;;;10.86;100.00
7052;BME280;3567;52.444;13.556;2023-04-15T12:46:21;100476.16;;;10.89;100.00
7052;BME280;3567;52.444;13.556;2023-04-15T12:48:47;100473.47;;;10.89;100.00
7052;BME280;3567;52.444;13.556;2023-04-15T12:51:13;100470.47;;;10.86;100.00
7052;BME280;3567;52.444;13.556;2023-04-15T12:53:38;100480.72;;;10.89;100.00
7052;BME280;3567;52.444;13.556;2023-04-15T12:56:04;100479.41;;;10.91;100.00
7052;BME280;3567;52.444;13.556;2023-04-15T12:58:29;100485.81;;;10.90;100.00
7052;BME280;3567;52.444;13.556;2023-04-15T13:00:54;100486.44;;;10.92;100.00
7052;BME280;3567;52.444;13.556;2023-04-15T13:03:21;100486.53;;;10.97;100.00
7052;BME280;3567;52.444;13.556;2023-04-15T13:05:46;100493.88;;;10.90;100.00